Terminal Aerodrome Forecast
Issued by NWS

Home | Current Version | Previous Version | Text Only | Print | Product List | Glossary On
Versions: 1 2 3 4 5 6 7 8 9 10 11 12 13 14 15 16 17 18 19 20
000
FTUS44 KTSA 012300
TAFFYV
TAF
KFYV 012320Z 0200/0224 17011KT P6SM FEW060 BKN100
     FM020800 18012KT P6SM BKN015
      TEMPO 0210/0214 BKN009
     FM021500 19011G20KT P6SM BKN025=

USA.gov is the U.S. government's official web portal to all federal, state and local government web resources and services.